sensor_id;sensor_type;location;lat;lon;timestamp;P1;durP1;ratioP1;P2;durP2;ratioP2
3979;SDS011;2004;52.452;13.120;2023-06-22T00:01:02;14.87;;;13.30;;
3979;SDS011;2004;52.452;13.120;2023-06-22T00:08:53;20.93;;;14.37;;
3979;SDS011;2004;52.452;13.120;2023-06-22T00:16:43;22.93;;;15.50;;
3979;SDS011;2004;52.452;13.120;2023-06-22T00:24:34;15.97;;;14.20;;
3979;SDS011;2004;52.452;13.120;2023-06-22T00:32:24;16.70;;;14.23;;
3979;SDS011;2004;52.452;13.120;2023-06-22T00:40:15;19.40;;;14.53;;
3979;SDS011;2004;52.452;13.120;2023-06-22T00:48:07;16.83;;;13.13;;
3979;SDS011;2004;52.452;13.120;2023-06-22T00:55:58;17.67;;;14.30;;
3979;SDS011;2004;52.452;13.120;2023-06-22T01:03:50;19.63;;;15.03;;
3979;SDS011;2004;52.452;13.120;2023-06-22T01:11:43;15.30;;;13.33;;
3979;SDS011;2004;52.452;13.120;2023-06-22T01:19:45;15.90;;;12.97;;
3979;SDS011;2004;52.452;13.120;2023-06-22T01:35:31;15.03;;;13.40;;
3979;SDS011;2004;52.452;13.120;2023-06-22T01:43:22;16.30;;;14.50;;
3979;SDS011;2004;52.452;13.120;2023-06-22T01:51:16;17.30;;;14.93;;
3979;SDS011;2004;52.452;13.120;2023-06-22T02:07:18;15.00;;;13.40;;
3979;SDS011;2004;52.452;13.120;2023-06-22T02:15:13;24.33;;;14.00;;
3979;SDS011;2004;52.452;13.120;2023-06-22T02:23:05;17.20;;;14.17;;
3979;SDS011;2004;52.452;13.120;2023-06-22T02:30:56;16.47;;;13.83;;
3979;SDS011;2004;52.452;13.120;2023-06-22T02:38:47;15.93;;;14.27;;
3979;SDS011;2004;52.452;13.120;2023-06-22T02:46:38;16.17;;;13.67;;
3979;SDS011;2004;52.452;13.120;2023-06-22T02:54:28;14.37;;;12.80;;
3979;SDS011;2004;52.452;13.120;2023-06-22T03:02:19;14.50;;;13.00;;
3979;SDS011;2004;52.452;13.120;2023-06-22T03:10:12;15.93;;;14.30;;
3979;SDS011;2004;52.452;13.120;2023-06-22T03:18:03;16.57;;;12.70;;
3979;SDS011;2004;52.452;13.120;2023-06-22T03:25:54;15.73;;;14.03;;
3979;SDS011;2004;52.452;13.120;2023-06-22T03:33:45;15.50;;;12.40;;
3979;SDS011;2004;52.452;13.120;2023-06-22T03:41:36;15.00;;;13.17;;
3979;SDS011;2004;52.452;13.120;2023-06-22T03:49:26;14.97;;;12.53;;
3979;SDS011;2004;52.452;13.120;2023-06-22T03:57:18;14.37;;;12.77;;
3979;SDS011;2004;52.452;13.120;2023-06-22T04:05:09;17.73;;;12.67;;
3979;SDS011;2004;52.452;13.120;2023-06-22T04:13:00;15.33;;;13.83;;
3979;SDS011;2004;52.452;13.120;2023-06-22T04:20:52;15.33;;;13.20;;
3979;SDS011;2004;52.452;13.120;2023-06-22T04:28:43;17.73;;;14.60;;
3979;SDS011;2004;52.452;13.120;2023-06-22T04:36:41;19.87;;;14.67;;
3979;SDS011;2004;52.452;13.120;2023-06-22T04:44:31;14.87;;;13.30;;
3979;SDS011;2004;52.452;13.120;2023-06-22T04:52:23;15.03;;;13.10;;
3979;SDS011;2004;52.452;13.120;2023-06-22T05:00:15;14.37;;;11.10;;
3979;SDS011;2004;52.452;13.120;2023-06-22T05:08:09;10.33;;;9.30;;
3979;SDS011;2004;52.452;13.120;2023-06-22T05:15:59;11.83;;;10.63;;
3979;SDS011;2004;52.452;13.120;2023-06-22T05:23:54;12.33;;;11.03;;
3979;SDS011;2004;52.452;13.120;2023-06-22T05:31:44;10.73;;;8.63;;
3979;SDS011;2004;52.452;13.120;2023-06-22T05:39:35;9.00;;;7.40;;
3979;SDS011;2004;52.452;13.120;2023-06-22T05:47:27;13.10;;;8.40;;
3979;SDS011;2004;52.452;13.120;2023-06-22T05:55:18;8.50;;;7.37;;
3979;SDS011;2004;52.452;13.120;2023-06-22T06:03:09;10.33;;;6.60;;
3979;SDS011;2004;52.452;13.120;2023-06-22T06:11:00;11.10;;;5.50;;
3979;SDS011;2004;52.452;13.120;2023-06-22T06:18:51;11.50;;;5.83;;
3979;SDS011;2004;52.452;13.120;2023-06-22T06:26:43;11.10;;;5.80;;
3979;SDS011;2004;52.452;13.120;2023-06-22T06:34:33;8.37;;;5.30;;
3979;SDS011;2004;52.452;13.120;2023-06-22T06:42:24;9.87;;;5.90;;
3979;SDS011;2004;52.452;13.120;2023-06-22T06:50:15;6.40;;;5.47;;
3979;SDS011;2004;52.452;13.120;2023-06-22T06:58:06;6.50;;;5.47;;
3979;SDS011;2004;52.452;13.120;2023-06-22T07:05:57;6.60;;;5.90;;
3979;SDS011;2004;52.452;13.120;2023-06-22T07:13:48;7.07;;;4.87;;
3979;SDS011;2004;52.452;13.120;2023-06-22T07:21:38;6.90;;;4.70;;
3979;SDS011;2004;52.452;13.120;2023-06-22T07:29:32;7.73;;;4.37;;
3979;SDS011;2004;52.452;13.120;2023-06-22T07:37:23;5.10;;;4.40;;
3979;SDS011;2004;52.452;13.120;2023-06-22T07:45:14;4.40;;;4.00;;
3979;SDS011;2004;52.452;13.120;2023-06-22T07:53:04;3.90;;;3.60;;
3979;SDS011;2004;52.452;13.120;2023-06-22T08:00:55;8.13;;;3.90;;
3979;SDS011;2004;52.452;13.120;2023-06-22T08:08:46;11.03;;;3.70;;
3979;SDS011;2004;52.452;13.120;2023-06-22T08:16:38;3.20;;;2.90;;
3979;SDS011;2004;52.452;13.120;2023-06-22T08:24:28;4.10;;;3.10;;
3979;SDS011;2004;52.452;13.120;2023-06-22T08:32:20;3.80;;;3.50;;
3979;SDS011;2004;52.452;13.120;2023-06-22T08:40:11;7.90;;;3.50;;
3979;SDS011;2004;52.452;13.120;2023-06-22T08:48:03;3.03;;;2.73;;
3979;SDS011;2004;52.452;13.120;2023-06-22T08:55:53;4.17;;;2.73;;
3979;SDS011;2004;52.452;13.120;2023-06-22T09:03:44;2.70;;;2.50;;
3979;SDS011;2004;52.452;13.120;2023-06-22T09:11:45;3.57;;;3.27;;
3979;SDS011;2004;52.452;13.120;2023-06-22T09:19:35;4.30;;;3.90;;
3979;SDS011;2004;52.452;13.120;2023-06-22T09:27:26;4.03;;;3.23;;
3979;SDS011;2004;52.452;13.120;2023-06-22T09:35:17;5.00;;;3.57;;
3979;SDS011;2004;52.452;13.120;2023-06-22T09:43:07;4.40;;;3.93;;
3979;SDS011;2004;52.452;13.120;2023-06-22T09:50:58;5.27;;;3.20;;
3979;SDS011;2004;52.452;13.120;2023-06-22T09:58:48;7.30;;;4.30;;
3979;SDS011;2004;52.452;13.120;2023-06-22T10:06:42;4.10;;;3.70;;
3979;SDS011;2004;52.452;13.120;2023-06-22T10:14:33;5.40;;;3.90;;
3979;SDS011;2004;52.452;13.120;2023-06-22T10:22:23;4.60;;;4.13;;
3979;SDS011;2004;52.452;13.120;2023-06-22T10:30:14;7.13;;;4.40;;
3979;SDS011;2004;52.452;13.120;2023-06-22T10:38:05;11.13;;;4.60;;
3979;SDS011;2004;52.452;13.120;2023-06-22T10:45:56;4.10;;;3.73;;
3979;SDS011;2004;52.452;13.120;2023-06-22T10:53:46;4.73;;;4.20;;
3979;SDS011;2004;52.452;13.120;2023-06-22T11:01:37;7.80;;;4.33;;
3979;SDS011;2004;52.452;13.120;2023-06-22T11:09:27;4.70;;;3.50;;
3979;SDS011;2004;52.452;13.120;2023-06-22T11:17:18;4.50;;;4.03;;
3979;SDS011;2004;52.452;13.120;2023-06-22T11:25:09;5.10;;;4.57;;
3979;SDS011;2004;52.452;13.120;2023-06-22T11:33:01;4.40;;;4.00;;
3979;SDS011;2004;52.452;13.120;2023-06-22T11:40:52;4.03;;;3.63;;
3979;SDS011;2004;52.452;13.120;2023-06-22T11:48:42;6.57;;;4.70;;
3979;SDS011;2004;52.452;13.120;2023-06-22T11:56:33;4.30;;;3.90;;
3979;SDS011;2004;52.452;13.120;2023-06-22T12:04:23;4.67;;;3.60;;
3979;SDS011;2004;52.452;13.120;2023-06-22T12:12:14;3.90;;;3.60;;
3979;SDS011;2004;52.452;13.120;2023-06-22T12:20:05;5.53;;;4.97;;
3979;SDS011;2004;52.452;13.120;2023-06-22T12:27:56;4.93;;;3.97;;
3979;SDS011;2004;52.452;13.120;2023-06-22T12:35:47;9.50;;;4.83;;
3979;SDS011;2004;52.452;13.120;2023-06-22T12:43:40;5.60;;;5.10;;
3979;SDS011;2004;52.452;13.120;2023-06-22T12:51:30;6.43;;;4.70;;
3979;SDS011;2004;52.452;13.120;2023-06-22T12:59:21;5.50;;;4.93;;
3979;SDS011;2004;52.452;13.120;2023-06-22T13:07:12;4.93;;;4.53;;
3979;SDS011;2004;52.452;13.120;2023-06-22T13:15:03;4.43;;;4.10;;
3979;SDS011;2004;52.452;13.120;2023-06-22T13:22:54;12.50;;;6.60;;
3979;SDS011;2004;52.452;13.120;2023-06-22T13:30:46;5.07;;;4.57;;
3979;SDS011;2004;52.452;13.120;2023-06-22T13:38:38;5.43;;;4.90;;
3979;SDS011;2004;52.452;13.120;2023-06-22T13:46:29;7.40;;;4.97;;
3979;SDS011;2004;52.452;13.120;2023-06-22T13:54:19;7.50;;;5.30;;
3979;SDS011;2004;52.452;13.120;2023-06-22T14:02:11;8.20;;;5.20;;
3979;SDS011;2004;52.452;13.120;2023-06-22T14:10:01;5.57;;;4.93;;
3979;SDS011;2004;52.452;13.120;2023-06-22T14:17:52;4.77;;;4.37;;
3979;SDS011;2004;52.452;13.120;2023-06-22T14:25:43;5.00;;;4.60;;
3979;SDS011;2004;52.452;13.120;2023-06-22T14:33:33;11.83;;;4.70;;
3979;SDS011;2004;52.452;13.120;2023-06-22T14:41:23;5.23;;;4.73;;
3979;SDS011;2004;52.452;13.120;2023-06-22T14:49:14;5.40;;;4.90;;
3979;SDS011;2004;52.452;13.120;2023-06-22T14:57:05;4.70;;;4.30;;
3979;SDS011;2004;52.452;13.120;2023-06-22T15:04:55;10.23;;;4.97;;
3979;SDS011;2004;52.452;13.120;2023-06-22T15:12:46;5.70;;;4.60;;
3979;SDS011;2004;52.452;13.120;2023-06-22T15:20:36;6.40;;;4.77;;
3979;SDS011;2004;52.452;13.120;2023-06-22T15:28:28;6.10;;;4.90;;
3979;SDS011;2004;52.452;13.120;2023-06-22T15:36:18;4.80;;;4.37;;
3979;SDS011;2004;52.452;13.120;2023-06-22T15:44:09;6.90;;;4.40;;
3979;SDS011;2004;52.452;13.120;2023-06-22T15:52:01;8.27;;;5.53;;
3979;SDS011;2004;52.452;13.120;2023-06-22T15:59:51;7.50;;;5.17;;
3979;SDS011;2004;52.452;13.120;2023-06-22T16:07:42;6.07;;;4.70;;
3979;SDS011;2004;52.452;13.120;2023-06-22T16:15:33;5.57;;;4.97;;
3979;SDS011;2004;52.452;13.120;2023-06-22T16:23:23;5.57;;;5.07;;
3979;SDS011;2004;52.452;13.120;2023-06-22T16:31:14;7.87;;;5.30;;
3979;SDS011;2004;52.452;13.120;2023-06-22T16:39:05;6.03;;;4.97;;
3979;SDS011;2004;52.452;13.120;2023-06-22T16:46:59;5.00;;;4.60;;
3979;SDS011;2004;52.452;13.120;2023-06-22T16:54:51;10.80;;;5.47;;
3979;SDS011;2004;52.452;13.120;2023-06-22T17:02:43;5.20;;;4.70;;
3979;SDS011;2004;52.452;13.120;2023-06-22T17:10:39;5.53;;;5.03;;
3979;SDS011;2004;52.452;13.120;2023-06-22T17:18:31;6.13;;;5.53;;
3979;SDS011;2004;52.452;13.120;2023-06-22T17:26:23;8.33;;;5.80;;
3979;SDS011;2004;52.452;13.120;2023-06-22T17:34:14;12.00;;;4.73;;
3979;SDS011;2004;52.452;13.120;2023-06-22T17:42:06;8.43;;;5.73;;
3979;SDS011;2004;52.452;13.120;2023-06-22T17:50:04;5.60;;;5.10;;
3979;SDS011;2004;52.452;13.120;2023-06-22T17:57:56;8.73;;;4.57;;
3979;SDS011;2004;52.452;13.120;2023-06-22T18:05:48;7.47;;;5.20;;
3979;SDS011;2004;52.452;13.120;2023-06-22T18:13:39;7.83;;;5.20;;
3979;SDS011;2004;52.452;13.120;2023-06-22T18:21:31;5.20;;;4.70;;
3979;SDS011;2004;52.452;13.120;2023-06-22T18:29:23;5.20;;;4.80;;
3979;SDS011;2004;52.452;13.120;2023-06-22T18:37:15;5.83;;;5.33;;
3979;SDS011;2004;52.452;13.120;2023-06-22T18:45:21;7.50;;;4.90;;
3979;SDS011;2004;52.452;13.120;2023-06-22T18:53:16;5.73;;;5.03;;
3979;SDS011;2004;52.452;13.120;2023-06-22T19:01:14;6.23;;;5.10;;
3979;SDS011;2004;52.452;13.120;2023-06-22T19:09:15;5.63;;;5.13;;
3979;SDS011;2004;52.452;13.120;2023-06-22T19:17:05;6.07;;;5.43;;
3979;SDS011;2004;52.452;13.120;2023-06-22T19:24:56;10.03;;;5.60;;
3979;SDS011;2004;52.452;13.120;2023-06-22T19:32:49;8.00;;;5.40;;
3979;SDS011;2004;52.452;13.120;2023-06-22T19:40:40;19.53;;;5.43;;
3979;SDS011;2004;52.452;13.120;2023-06-22T19:48:31;6.97;;;6.27;;
3979;SDS011;2004;52.452;13.120;2023-06-22T19:56:21;6.57;;;5.97;;
3979;SDS011;2004;52.452;13.120;2023-06-22T20:04:12;8.63;;;5.37;;
3979;SDS011;2004;52.452;13.120;2023-06-22T20:12:03;7.70;;;6.57;;
3979;SDS011;2004;52.452;13.120;2023-06-22T20:19:54;17.50;;;7.63;;
3979;SDS011;2004;52.452;13.120;2023-06-22T20:27:45;23.63;;;10.80;;
3979;SDS011;2004;52.452;13.120;2023-06-22T20:35:35;16.20;;;8.50;;
3979;SDS011;2004;52.452;13.120;2023-06-22T20:43:26;18.20;;;8.13;;
3979;SDS011;2004;52.452;13.120;2023-06-22T20:51:16;16.77;;;8.50;;
3979;SDS011;2004;52.452;13.120;2023-06-22T20:59:07;10.70;;;7.03;;
3979;SDS011;2004;52.452;13.120;2023-06-22T21:06:58;14.70;;;7.20;;
3979;SDS011;2004;52.452;13.120;2023-06-22T21:14:48;8.50;;;7.20;;
3979;SDS011;2004;52.452;13.120;2023-06-22T21:22:39;11.63;;;8.30;;
3979;SDS011;2004;52.452;13.120;2023-06-22T21:30:30;13.10;;;10.30;;
3979;SDS011;2004;52.452;13.120;2023-06-22T21:38:20;19.27;;;12.60;;
3979;SDS011;2004;52.452;13.120;2023-06-22T21:46:11;19.23;;;12.90;;
3979;SDS011;2004;52.452;13.120;2023-06-22T21:54:01;19.83;;;13.90;;
3979;SDS011;2004;52.452;13.120;2023-06-22T22:01:52;19.57;;;14.60;;
3979;SDS011;2004;52.452;13.120;2023-06-22T22:09:45;16.43;;;14.57;;
3979;SDS011;2004;52.452;13.120;2023-06-22T22:17:35;17.60;;;15.00;;
3979;SDS011;2004;52.452;13.120;2023-06-22T22:25:26;20.00;;;16.50;;
3979;SDS011;2004;52.452;13.120;2023-06-22T22:33:16;21.30;;;18.00;;
3979;SDS011;2004;52.452;13.120;2023-06-22T22:41:08;19.70;;;16.70;;
3979;SDS011;2004;52.452;13.120;2023-06-22T22:48:58;20.73;;;14.97;;
3979;SDS011;2004;52.452;13.120;2023-06-22T22:56:50;24.37;;;15.07;;
3979;SDS011;2004;52.452;13.120;2023-06-22T23:04:40;16.47;;;14.03;;
3979;SDS011;2004;52.452;13.120;2023-06-22T23:12:49;16.10;;;13.93;;
3979;SDS011;2004;52.452;13.120;2023-06-22T23:20:58;17.23;;;14.60;;
3979;SDS011;2004;52.452;13.120;2023-06-22T23:55:10;16.27;;;12.07;;
